createdAt,value
2022-12-26T00:01:36.703Z,8.65
2022-12-26T00:04:04.595Z,9.05
2022-12-26T00:06:32.799Z,7.75
2022-12-26T00:09:01.559Z,7.85
2022-12-26T00:11:29.834Z,7.32
2022-12-26T00:13:59.779Z,7.32
2022-12-26T00:16:27.963Z,7.57
2022-12-26T00:18:56.081Z,7.62
2022-12-26T00:21:25.762Z,7.50
2022-12-26T00:23:54.426Z,7.95
2022-12-26T00:26:24.639Z,7.22
2022-12-26T00:28:53.821Z,7.10
2022-12-26T00:31:26.910Z,7.22
2022-12-26T00:33:54.751Z,7.25
2022-12-26T00:36:24.702Z,7.03
2022-12-26T00:38:52.315Z,6.87
2022-12-26T00:41:21.174Z,8.25
2022-12-26T00:43:49.050Z,7.57
2022-12-26T00:46:17.410Z,7.68
2022-12-26T00:48:45.257Z,7.80
2022-12-26T00:51:13.482Z,8.10
2022-12-26T00:53:40.989Z,8.15
2022-12-26T00:56:08.967Z,9.30
2022-12-26T00:58:37.346Z,8.85
2022-12-26T01:01:11.106Z,9.75
2022-12-26T01:03:39.895Z,10.90
2022-12-26T01:06:07.634Z,9.63
2022-12-26T01:08:35.087Z,10.00
2022-12-26T01:11:07.335Z,9.93
2022-12-26T01:13:35.316Z,9.27
2022-12-26T01:16:03.577Z,9.88
2022-12-26T01:18:31.682Z,9.43
2022-12-26T01:21:01.804Z,10.18
2022-12-26T01:23:29.672Z,9.77
2022-12-26T01:26:17.504Z,9.80
2022-12-26T01:28:44.742Z,10.07
2022-12-26T01:31:12.178Z,9.65
2022-12-26T01:33:39.923Z,10.95
2022-12-26T01:36:07.861Z,9.95
2022-12-26T01:38:35.440Z,10.65
2022-12-26T01:41:19.840Z,10.85
2022-12-26T01:43:54.425Z,10.10
2022-12-26T01:46:44.926Z,10.82
2022-12-26T01:49:30.231Z,11.30
2022-12-26T01:54:37.601Z,10.25
2022-12-26T01:57:11.025Z,11.52
2022-12-26T01:59:40.530Z,10.98
2022-12-26T02:02:08.643Z,10.35
2022-12-26T02:05:00.122Z,11.40
2022-12-26T02:07:28.397Z,12.02
2022-12-26T02:09:56.155Z,11.05
2022-12-26T02:12:34.528Z,11.32
2022-12-26T02:15:08.071Z,12.50
2022-12-26T02:17:36.418Z,11.55
2022-12-26T02:20:16.219Z,11.82
2022-12-26T02:22:56.345Z,13.70
2022-12-26T02:25:43.192Z,12.63
2022-12-26T02:28:39.416Z,13.07
2022-12-26T02:31:25.758Z,12.35
2022-12-26T02:33:56.466Z,12.93
2022-12-26T02:36:28.466Z,14.07
2022-12-26T02:39:02.053Z,13.00
2022-12-26T02:41:47.391Z,14.52
2022-12-26T02:47:38.779Z,14.57
2022-12-26T02:51:08.849Z,14.50
2022-12-26T02:54:16.399Z,14.50
2022-12-26T02:57:07.175Z,14.77
2022-12-26T02:59:57.291Z,14.90
2022-12-26T03:02:49.273Z,13.70
2022-12-26T03:05:41.374Z,13.80
2022-12-26T03:08:31.346Z,13.55
2022-12-26T03:11:17.734Z,14.73
2022-12-26T03:13:45.519Z,14.38
2022-12-26T03:16:32.407Z,15.02
2022-12-26T03:19:03.961Z,14.80
2022-12-26T03:21:37.143Z,15.50
2022-12-26T03:24:05.004Z,14.25
2022-12-26T03:26:42.379Z,14.70
2022-12-26T03:29:30.917Z,14.75
2022-12-26T03:31:59.302Z,14.35
2022-12-26T03:34:27.043Z,13.82
2022-12-26T03:37:02.618Z,13.62
2022-12-26T03:40:08.089Z,13.82
2022-12-26T03:43:06.045Z,14.05
2022-12-26T03:46:06.707Z,14.20
2022-12-26T03:49:15.747Z,14.05
2022-12-26T03:52:32.699Z,13.07
2022-12-26T03:55:25.982Z,13.73
2022-12-26T03:58:33.037Z,13.75
2022-12-26T04:01:20.051Z,14.35
2022-12-26T04:04:07.145Z,16.37
2022-12-26T04:07:04.600Z,14.23
2022-12-26T04:09:56.419Z,14.02
2022-12-26T04:12:44.880Z,14.07
2022-12-26T04:15:48.453Z,13.88
2022-12-26T04:18:39.211Z,13.62
2022-12-26T04:21:39.994Z,14.27
2022-12-26T04:24:45.494Z,14.80
2022-12-26T04:27:33.555Z,14.43
2022-12-26T04:30:19.886Z,15.43
2022-12-26T04:33:08.551Z,14.02
2022-12-26T04:36:07.441Z,14.23
2022-12-26T04:38:57.503Z,16.30
2022-12-26T04:41:44.059Z,15.10
2022-12-26T04:44:13.097Z,15.32
2022-12-26T04:46:43.450Z,13.65
2022-12-26T04:49:32.358Z,16.05
2022-12-26T04:52:01.677Z,15.77
2022-12-26T04:54:29.137Z,15.07
2022-12-26T04:56:56.586Z,14.52
2022-12-26T04:59:24.838Z,14.32
2022-12-26T05:02:10.963Z,15.30
2022-12-26T05:04:57.337Z,15.48
2022-12-26T05:07:46.000Z,16.05
2022-12-26T05:10:18.702Z,14.90
2022-12-26T05:12:46.108Z,14.07
2022-12-26T05:15:14.188Z,15.30
2022-12-26T05:18:00.297Z,14.82
2022-12-26T05:20:30.722Z,14.75
2022-12-26T05:23:17.183Z,15.10
2022-12-26T05:26:05.566Z,14.10
2022-12-26T05:28:42.111Z,14.68
2022-12-26T05:31:15.369Z,14.38
2022-12-26T05:34:02.279Z,14.45
2022-12-26T05:36:48.545Z,15.52
2022-12-26T05:39:16.028Z,16.20
2022-12-26T05:41:43.859Z,16.00
2022-12-26T05:44:11.973Z,16.42
2022-12-26T05:46:39.606Z,14.38
2022-12-26T05:49:07.397Z,13.88
2022-12-26T05:51:35.544Z,13.25
2022-12-26T05:54:03.504Z,14.15
2022-12-26T05:56:31.245Z,15.25
2022-12-26T05:59:00.452Z,13.75
2022-12-26T06:01:28.914Z,14.90
2022-12-26T06:03:58.324Z,14.75
2022-12-26T06:06:27.090Z,15.30
2022-12-26T06:08:55.612Z,15.45
2022-12-26T06:11:25.821Z,14.20
2022-12-26T06:13:53.357Z,14.25
2022-12-26T06:16:20.900Z,13.98
2022-12-26T06:18:49.671Z,14.20
2022-12-26T06:21:19.105Z,15.73
2022-12-26T06:23:47.860Z,16.90
2022-12-26T06:26:16.231Z,15.82
2022-12-26T06:28:44.043Z,14.90
2022-12-26T06:31:20.451Z,14.15
2022-12-26T06:33:49.788Z,14.75
2022-12-26T06:36:20.056Z,14.25
2022-12-26T06:38:47.822Z,13.55
2022-12-26T06:41:18.017Z,12.25
2022-12-26T06:43:47.396Z,14.70
2022-12-26T06:46:17.761Z,13.82
2022-12-26T06:48:45.291Z,14.63
2022-12-26T06:51:18.837Z,14.25
2022-12-26T06:53:46.732Z,13.40
2022-12-26T06:56:19.861Z,14.07
2022-12-26T06:58:47.978Z,14.80
2022-12-26T07:01:17.983Z,15.88
2022-12-26T07:03:51.192Z,17.75
2022-12-26T07:06:23.811Z,16.35
2022-12-26T07:08:52.145Z,15.73
2022-12-26T07:11:22.481Z,14.38
2022-12-26T07:13:49.915Z,14.52
2022-12-26T07:16:17.614Z,15.20
2022-12-26T07:18:45.306Z,14.65
2022-12-26T07:21:14.759Z,15.98
2022-12-26T07:23:42.625Z,18.60
2022-12-26T07:26:10.585Z,16.50
2022-12-26T07:28:38.634Z,17.05
2022-12-26T07:31:06.531Z,15.88
2022-12-26T07:33:34.739Z,16.62
2022-12-26T07:36:06.491Z,18.65
2022-12-26T07:38:34.227Z,16.27
2022-12-26T07:41:24.487Z,15.88
2022-12-26T07:43:52.581Z,16.17
2022-12-26T07:46:20.167Z,15.95
2022-12-26T07:48:47.813Z,15.13
2022-12-26T07:51:15.702Z,16.80
2022-12-26T07:53:43.670Z,18.37
2022-12-26T07:56:11.090Z,20.33
2022-12-26T07:58:38.839Z,18.35
2022-12-26T08:01:06.926Z,18.52
2022-12-26T08:03:35.250Z,19.40
2022-12-26T08:06:02.886Z,16.62
2022-12-26T08:08:30.330Z,19.48
2022-12-26T08:11:02.627Z,18.10
2022-12-26T08:13:30.524Z,18.37
2022-12-26T08:15:58.780Z,18.12
2022-12-26T08:18:26.439Z,17.10
2022-12-26T08:20:53.844Z,15.07
2022-12-26T08:23:21.587Z,14.82
2022-12-26T08:25:49.020Z,13.90
2022-12-26T08:28:16.455Z,14.43
2022-12-26T08:30:44.201Z,14.27
2022-12-26T08:33:12.032Z,14.52
2022-12-26T08:35:40.209Z,15.65
2022-12-26T08:38:08.014Z,12.85
2022-12-26T08:40:43.988Z,15.25
2022-12-26T08:43:30.164Z,15.10
2022-12-26T08:46:06.379Z,15.80
2022-12-26T08:48:34.909Z,16.37
2022-12-26T08:51:05.357Z,17.83
2022-12-26T08:53:33.287Z,16.58
2022-12-26T08:56:01.124Z,16.92
2022-12-26T08:58:29.293Z,18.33
2022-12-26T09:01:09.323Z,18.85
2022-12-26T09:03:38.417Z,18.08
2022-12-26T09:06:06.718Z,17.55
2022-12-26T09:08:35.503Z,18.10
2022-12-26T09:11:12.155Z,18.30
2022-12-26T09:13:39.891Z,18.55
2022-12-26T09:16:17.839Z,18.58
2022-12-26T09:18:46.159Z,18.73
2022-12-26T09:21:15.749Z,17.52
2022-12-26T09:23:43.737Z,17.80
2022-12-26T09:26:17.303Z,17.77
2022-12-26T09:28:47.042Z,17.98
2022-12-26T09:31:17.416Z,16.27
2022-12-26T09:33:47.121Z,17.42
2022-12-26T09:36:17.068Z,16.52
2022-12-26T09:38:46.103Z,18.73
2022-12-26T09:41:32.141Z,18.30
2022-12-26T09:44:10.154Z,17.75
2022-12-26T09:47:06.715Z,17.25
2022-12-26T09:49:37.622Z,18.27
2022-12-26T09:52:48.506Z,17.35
2022-12-26T09:55:18.995Z,17.83
2022-12-26T09:57:47.928Z,17.85
2022-12-26T10:00:21.080Z,19.45
2022-12-26T10:02:54.044Z,20.67
2022-12-26T10:05:23.831Z,22.23
2022-12-26T10:07:57.827Z,20.80
2022-12-26T10:10:45.732Z,20.33
2022-12-26T10:13:29.388Z,20.58
2022-12-26T10:16:18.235Z,20.42
2022-12-26T10:18:53.805Z,18.98
2022-12-26T10:21:21.151Z,20.08
2022-12-26T10:23:52.619Z,18.40
2022-12-26T10:26:33.580Z,18.62
2022-12-26T10:29:10.360Z,18.45
2022-12-26T10:31:42.284Z,16.15
2022-12-26T10:34:29.302Z,15.43
2022-12-26T10:37:01.565Z,16.50
2022-12-26T10:39:35.982Z,16.08
2022-12-26T10:42:11.039Z,15.68
2022-12-26T10:44:40.642Z,16.67
2022-12-26T10:47:15.365Z,16.08
2022-12-26T10:49:45.596Z,17.00
2022-12-26T10:52:14.437Z,16.73
2022-12-26T10:54:42.218Z,17.95
2022-12-26T10:57:11.314Z,22.08
2022-12-26T10:59:42.675Z,18.98
2022-12-26T11:02:31.880Z,18.75
2022-12-26T11:05:15.957Z,16.40
2022-12-26T11:07:52.653Z,22.00
2022-12-26T11:10:22.786Z,18.77
2022-12-26T11:13:01.174Z,17.20
2022-12-26T11:15:41.075Z,19.83
2022-12-26T11:18:37.713Z,18.08
2022-12-26T11:21:17.977Z,17.85
2022-12-26T11:23:51.557Z,17.85
2022-12-26T11:26:21.612Z,16.05
2022-12-26T11:29:12.588Z,17.75
2022-12-26T11:31:59.971Z,16.40
2022-12-26T11:34:34.530Z,16.83
2022-12-26T11:37:03.832Z,17.30
2022-12-26T11:39:35.473Z,17.58
2022-12-26T11:42:14.739Z,17.30
2022-12-26T11:44:45.468Z,19.95
2022-12-26T11:47:15.372Z,20.12
2022-12-26T11:50:03.257Z,22.25
2022-12-26T11:52:39.889Z,21.42
2022-12-26T11:55:22.826Z,23.20
2022-12-26T11:58:09.745Z,24.73
2022-12-26T12:00:39.901Z,23.60
2022-12-26T12:03:31.063Z,21.55
2022-12-26T12:06:20.702Z,25.35
2022-12-26T12:09:12.873Z,23.73
2022-12-26T12:12:17.746Z,23.08
2022-12-26T12:14:57.410Z,21.80
2022-12-26T12:17:28.559Z,22.25
2022-12-26T12:20:08.491Z,26.48
2022-12-26T12:22:49.135Z,24.60
2022-12-26T12:25:28.858Z,24.95
2022-12-26T12:28:00.845Z,23.15
2022-12-26T12:30:53.755Z,24.40
2022-12-26T12:33:30.465Z,23.02
2022-12-26T12:36:36.629Z,23.70
2022-12-26T12:39:13.295Z,24.20
2022-12-26T12:41:53.366Z,22.98
2022-12-26T12:44:32.145Z,23.65
2022-12-26T12:47:10.743Z,21.85
2022-12-26T12:49:57.630Z,25.05
2022-12-26T12:52:37.098Z,22.55
2022-12-26T12:55:36.882Z,23.48
2022-12-26T12:58:04.478Z,21.35
2022-12-26T13:00:45.034Z,21.98
2022-12-26T13:03:49.049Z,23.12
2022-12-26T13:06:26.817Z,25.33
2022-12-26T13:09:08.813Z,23.73
2022-12-26T13:11:39.668Z,22.67
2022-12-26T13:14:14.722Z,23.60
2022-12-26T13:16:45.372Z,23.70
2022-12-26T13:19:51.596Z,22.55
2022-12-26T13:22:26.077Z,21.05
2022-12-26T13:24:59.669Z,22.73
2022-12-26T13:27:31.701Z,21.87
2022-12-26T13:29:59.367Z,22.42
2022-12-26T13:32:28.137Z,22.35
2022-12-26T13:34:57.662Z,21.08
2022-12-26T13:37:37.555Z,20.67
2022-12-26T13:40:10.950Z,19.62
2022-12-26T13:43:03.086Z,20.33
2022-12-26T13:45:48.788Z,23.52
2022-12-26T13:48:16.451Z,26.92
2022-12-26T13:50:56.460Z,26.90
2022-12-26T13:53:27.160Z,24.40
2022-12-26T13:55:57.122Z,21.58
2022-12-26T13:58:43.604Z,22.60
2022-12-26T14:01:55.062Z,21.25
2022-12-26T14:04:41.837Z,22.15
2022-12-26T14:07:35.824Z,23.55
2022-12-26T14:10:23.961Z,21.17
2022-12-26T14:13:03.584Z,21.37
2022-12-26T14:15:43.329Z,22.40
2022-12-26T14:18:28.476Z,22.20
2022-12-26T14:21:15.261Z,23.83
2022-12-26T14:24:10.944Z,27.10
2022-12-26T14:26:41.196Z,25.37
2022-12-26T14:29:21.154Z,24.60
2022-12-26T14:32:30.141Z,27.87
2022-12-26T14:35:36.535Z,26.77
2022-12-26T14:38:22.380Z,26.20
2022-12-26T14:41:01.240Z,25.90
2022-12-26T14:43:37.043Z,25.37
2022-12-26T14:46:30.893Z,26.08
2022-12-26T14:49:01.031Z,27.13
2022-12-26T14:51:32.023Z,27.30
2022-12-26T14:54:27.903Z,26.17
2022-12-26T14:56:55.412Z,26.23
2022-12-26T14:59:29.462Z,29.58
2022-12-26T15:02:12.246Z,26.70
2022-12-26T15:05:12.210Z,26.27
2022-12-26T15:07:57.959Z,27.75
2022-12-26T15:10:46.971Z,30.75
2022-12-26T15:13:30.338Z,29.50
2022-12-26T15:16:02.830Z,29.47
2022-12-26T15:18:54.519Z,29.48
2022-12-26T15:21:43.773Z,27.95
2022-12-26T15:25:16.510Z,31.92
2022-12-26T15:27:20.308Z,29.45
2022-12-26T15:30:07.953Z,30.75
2022-12-26T15:32:57.493Z,29.98
2022-12-26T15:35:45.470Z,27.25
2022-12-26T15:38:26.353Z,30.08
2022-12-26T15:41:15.573Z,29.67
2022-12-26T15:44:08.726Z,28.67
2022-12-26T15:46:42.763Z,29.33
2022-12-26T15:49:26.352Z,28.42
2022-12-26T15:52:02.783Z,29.95
2022-12-26T15:54:38.559Z,29.30
2022-12-26T15:57:26.957Z,28.58
2022-12-26T16:00:15.511Z,29.40
2022-12-26T16:03:18.236Z,29.70
2022-12-26T16:05:48.279Z,32.28
2022-12-26T16:08:43.370Z,32.95
2022-12-26T16:11:23.119Z,32.17
2022-12-26T16:14:02.269Z,35.25
2022-12-26T16:16:35.751Z,39.17
2022-12-26T16:19:26.863Z,53.93
2022-12-26T16:22:17.822Z,41.83
2022-12-26T16:24:46.332Z,59.75
2022-12-26T16:27:22.165Z,49.22
2022-12-26T16:29:56.348Z,46.42
2022-12-26T16:32:30.462Z,50.00
2022-12-26T16:34:58.932Z,44.33
2022-12-26T16:37:27.033Z,46.10
2022-12-26T16:40:14.933Z,48.03
2022-12-26T16:42:44.706Z,45.42
2022-12-26T16:45:19.748Z,47.62
2022-12-26T16:47:47.744Z,45.47
2022-12-26T16:50:20.701Z,43.08
2022-12-26T16:52:49.071Z,55.12
2022-12-26T16:55:27.605Z,45.70
2022-12-26T16:57:57.098Z,45.40
2022-12-26T17:00:24.663Z,45.88
2022-12-26T17:02:56.316Z,41.58
2022-12-26T17:05:33.064Z,42.65
2022-12-26T17:08:01.938Z,45.42
2022-12-26T17:10:37.427Z,45.20
2022-12-26T17:13:07.588Z,41.70
2022-12-26T17:15:56.867Z,36.47
2022-12-26T17:18:45.184Z,39.90
2022-12-26T17:21:18.771Z,42.65
2022-12-26T17:24:03.013Z,44.88
2022-12-26T17:26:31.675Z,50.22
2022-12-26T17:28:59.936Z,53.78
2022-12-26T17:31:34.067Z,48.47
2022-12-26T17:34:23.996Z,37.55
2022-12-26T17:37:18.286Z,46.10
2022-12-26T17:39:40.555Z,41.50
2022-12-26T17:42:08.085Z,40.25
2022-12-26T17:44:41.966Z,40.10
2022-12-26T17:47:20.227Z,40.65
2022-12-26T17:49:49.566Z,39.20
2022-12-26T17:52:20.522Z,41.80
2022-12-26T17:54:49.582Z,47.65
2022-12-26T17:57:36.334Z,46.00
2022-12-26T18:00:14.141Z,51.35
2022-12-26T18:02:42.271Z,44.60
2022-12-26T18:05:09.955Z,50.95
2022-12-26T18:07:40.068Z,51.45
2022-12-26T18:10:22.569Z,45.72
2022-12-26T18:12:51.579Z,51.40
2022-12-26T18:15:20.148Z,49.10
2022-12-26T18:17:49.522Z,47.62
2022-12-26T18:20:19.963Z,54.35
2022-12-26T18:22:48.385Z,53.25
2022-12-26T18:25:17.007Z,70.95
2022-12-26T18:27:45.084Z,59.88
2022-12-26T18:30:23.115Z,58.17
2022-12-26T18:32:53.143Z,65.53
2022-12-26T18:35:22.069Z,61.67
2022-12-26T18:37:51.661Z,58.97
2022-12-26T18:40:32.914Z,57.85
2022-12-26T18:43:02.140Z,57.35
2022-12-26T18:45:30.364Z,57.62
2022-12-26T18:47:58.446Z,64.78
2022-12-26T18:50:28.522Z,65.07
2022-12-26T18:52:56.714Z,55.78
2022-12-26T18:55:25.508Z,46.15
2022-12-26T18:57:53.418Z,52.00
2022-12-26T19:00:23.402Z,53.38
2022-12-26T19:02:52.131Z,56.22
2022-12-26T19:05:31.157Z,57.30
2022-12-26T19:07:59.573Z,107.78
2022-12-26T19:10:30.871Z,48.42
2022-12-26T19:13:05.357Z,36.00
2022-12-26T19:15:35.617Z,33.85
2022-12-26T19:18:05.438Z,31.10
2022-12-26T19:20:37.693Z,36.60
2022-12-26T19:23:09.698Z,32.00
2022-12-26T19:25:37.535Z,31.62
2022-12-26T19:28:05.093Z,28.20
2022-12-26T19:30:38.471Z,27.10
2022-12-26T19:33:07.454Z,28.48
2022-12-26T19:35:35.868Z,25.70
2022-12-26T19:38:03.653Z,26.60
2022-12-26T19:40:31.687Z,29.15
2022-12-26T19:42:59.850Z,24.67
2022-12-26T19:45:28.038Z,30.58
2022-12-26T19:47:55.866Z,32.13
2022-12-26T19:50:24.031Z,32.40
2022-12-26T19:52:51.582Z,36.60
2022-12-26T19:55:19.664Z,43.08
2022-12-26T19:57:47.913Z,39.97
2022-12-26T20:00:15.608Z,42.47
2022-12-26T20:02:43.668Z,41.58
2022-12-26T20:05:12.021Z,45.63
2022-12-26T20:07:39.645Z,44.90
2022-12-26T20:10:07.926Z,26.12
2022-12-26T20:12:35.650Z,20.95
2022-12-26T20:15:03.110Z,24.40
2022-12-26T20:17:31.307Z,20.80
2022-12-26T20:20:00.132Z,25.77
2022-12-26T20:22:28.151Z,23.00
2022-12-26T20:24:55.834Z,21.23
2022-12-26T20:27:23.394Z,25.70
2022-12-26T20:29:51.098Z,23.50
2022-12-26T20:32:18.815Z,20.80
2022-12-26T20:34:46.512Z,24.40
2022-12-26T20:37:14.121Z,22.40
2022-12-26T20:39:42.136Z,23.48
2022-12-26T20:42:10.160Z,26.73
2022-12-26T20:44:41.786Z,33.08
2022-12-26T20:47:09.919Z,31.80
2022-12-26T20:49:37.365Z,35.65
2022-12-26T20:52:04.947Z,31.98
2022-12-26T20:54:33.034Z,37.38
2022-12-26T20:57:03.118Z,34.38
2022-12-26T20:59:30.886Z,30.90
2022-12-26T21:01:59.483Z,56.72
2022-12-26T21:04:27.192Z,48.30
2022-12-26T21:06:54.619Z,39.88
2022-12-26T21:09:22.727Z,37.30
2022-12-26T21:11:51.145Z,35.58
2022-12-26T21:14:20.818Z,35.25
2022-12-26T21:16:51.784Z,32.72
2022-12-26T21:19:20.604Z,26.77
2022-12-26T21:21:50.931Z,24.80
2022-12-26T21:24:23.914Z,23.60
2022-12-26T21:26:52.582Z,26.65
2022-12-26T21:29:24.747Z,29.50
2022-12-26T21:31:53.539Z,28.15
2022-12-26T21:34:23.080Z,28.90
2022-12-26T21:37:10.071Z,30.35
2022-12-26T21:39:38.481Z,29.83
2022-12-26T21:42:07.917Z,27.42
2022-12-26T21:44:38.783Z,29.23
2022-12-26T21:47:10.090Z,27.73
2022-12-26T21:49:37.708Z,27.90
2022-12-26T21:52:06.607Z,26.25
2022-12-26T21:54:53.207Z,27.02
2022-12-26T21:57:21.449Z,27.30
2022-12-26T21:59:58.244Z,27.62
2022-12-26T22:02:48.751Z,27.52
2022-12-26T22:05:17.901Z,25.73
2022-12-26T22:07:45.816Z,27.05
2022-12-26T22:10:33.925Z,28.25
2022-12-26T22:13:02.784Z,29.85
2022-12-26T22:15:48.901Z,31.50
2022-12-26T22:18:19.931Z,43.40
2022-12-26T22:20:47.401Z,37.65
2022-12-26T22:23:14.790Z,32.30
2022-12-26T22:25:42.601Z,33.13
2022-12-26T22:28:10.378Z,31.70
2022-12-26T22:30:37.788Z,26.37
2022-12-26T22:33:05.543Z,26.58
2022-12-26T22:35:33.509Z,30.62
2022-12-26T22:38:00.908Z,28.92
2022-12-26T22:40:28.753Z,23.80
2022-12-26T22:42:56.169Z,25.98
2022-12-26T22:45:23.551Z,26.98
2022-12-26T22:47:51.223Z,29.05
2022-12-26T22:50:18.707Z,33.00
2022-12-26T22:52:46.149Z,27.17
2022-12-26T22:55:14.564Z,25.42
2022-12-26T22:57:42.156Z,25.25
2022-12-26T23:00:12.648Z,24.52
2022-12-26T23:02:40.567Z,24.37
2022-12-26T23:05:10.523Z,24.25
2022-12-26T23:07:38.353Z,23.80
2022-12-26T23:10:07.556Z,26.30
2022-12-26T23:12:44.641Z,25.77
2022-12-26T23:15:18.192Z,27.42
2022-12-26T23:18:14.136Z,27.55
2022-12-26T23:21:00.460Z,28.98
2022-12-26T23:23:28.036Z,27.37
2022-12-26T23:25:59.554Z,26.02
2022-12-26T23:28:45.907Z,24.05
2022-12-26T23:31:13.660Z,19.62
2022-12-26T23:33:41.243Z,19.10
2022-12-26T23:36:08.880Z,18.25
2022-12-26T23:38:36.526Z,18.12
2022-12-26T23:41:04.027Z,19.10
2022-12-26T23:43:33.527Z,20.62
2022-12-26T23:46:01.242Z,21.37
2022-12-26T23:48:28.716Z,21.23
2022-12-26T23:51:03.753Z,21.52
2022-12-26T23:53:31.457Z,23.60
2022-12-26T23:55:59.179Z,22.35
2022-12-26T23:58:27.064Z,22.08
